createdAt,value
2019-01-05T06:55:21.507Z,5.80
2019-01-05T06:58:47.991Z,5.80
2019-01-05T07:02:25.228Z,5.80
2019-01-05T07:06:14.714Z,5.80
2019-01-05T07:09:49.764Z,5.80
2019-01-05T07:13:15.992Z,5.80
2019-01-05T07:16:51.780Z,5.80
2019-01-05T07:20:12.251Z,5.80
2019-01-05T07:23:35.771Z,5.80
2019-01-05T07:27:00.718Z,5.80
2019-01-05T07:29:45.043Z,5.80
2019-01-05T07:33:12.010Z,5.90
2019-01-05T07:36:32.830Z,5.90
2019-01-05T07:40:25.010Z,5.90
2019-01-05T07:44:14.638Z,5.90
2019-01-05T07:48:00.827Z,5.90
2019-01-05T07:51:24.104Z,5.90
2019-01-05T07:54:48.333Z,5.90
2019-01-05T07:58:06.204Z,5.90
2019-01-05T08:01:30.838Z,5.90
2019-01-05T08:04:40.047Z,5.90
2019-01-05T08:08:23.222Z,5.90
2019-01-05T08:12:02.160Z,5.80
2019-01-05T08:15:37.647Z,5.80
2019-01-05T08:19:06.786Z,5.80
2019-01-05T08:22:40.698Z,5.80
2019-01-05T08:26:00.254Z,5.80
2019-01-05T08:29:39.107Z,5.70
2019-01-05T08:32:58.995Z,5.80
2019-01-05T08:36:10.553Z,5.80
2019-01-05T08:40:00.683Z,5.90
2019-01-05T08:43:52.606Z,6.00
2019-01-05T08:47:49.734Z,6.10
2019-01-05T08:50:54.903Z,6.20
2019-01-05T08:54:25.556Z,6.20
2019-01-05T08:57:59.054Z,6.30
2019-01-05T09:01:33.459Z,6.40
2019-01-05T09:04:58.895Z,6.40
2019-01-05T09:08:08.713Z,6.30
2019-01-05T09:11:21.488Z,6.30
2019-01-05T09:14:51.078Z,6.40
2019-01-05T09:18:30.128Z,6.50
2019-01-05T09:21:51.435Z,6.60
2019-01-05T09:25:19.403Z,6.60
2019-01-05T09:28:42.759Z,6.50
2019-01-05T09:32:38.206Z,6.50
2019-01-05T09:36:17.019Z,6.50
2019-01-05T09:39:48.877Z,6.50
2019-01-05T09:43:43.811Z,6.60
2019-01-05T09:47:35.503Z,6.60
2019-01-05T09:51:09.234Z,6.60
2019-01-05T09:54:37.231Z,6.70
2019-01-05T09:58:07.643Z,7.00
2019-01-05T10:01:31.360Z,7.10
2019-01-05T10:04:59.421Z,7.20
2019-01-05T10:08:20.537Z,7.20
2019-01-05T10:11:47.231Z,7.10
2019-01-05T10:15:16.999Z,7.10
2019-01-05T10:18:33.850Z,7.10
2019-01-05T10:21:51.666Z,7.10
2019-01-05T10:25:48.911Z,7.10
2019-01-05T10:29:22.727Z,7.10
2019-01-05T10:32:35.118Z,7.10
2019-01-05T10:36:05.515Z,7.10
2019-01-05T10:39:51.770Z,7.00
2019-01-05T10:43:19.625Z,7.00
2019-01-05T10:46:36.758Z,7.00
2019-01-05T10:50:22.459Z,7.00
2019-01-05T10:53:37.911Z,6.90
2019-01-05T10:56:53.640Z,6.90
2019-01-05T11:00:36.148Z,6.90
2019-01-05T11:04:09.744Z,6.90
2019-01-05T11:07:35.475Z,6.90
2019-01-05T11:10:54.541Z,6.80
2019-01-05T11:14:13.086Z,6.80
2019-01-05T11:17:21.995Z,6.90
2019-01-05T11:20:57.946Z,6.90
2019-01-05T11:24:09.259Z,6.80
2019-01-05T11:27:36.334Z,6.90
2019-01-05T11:31:09.590Z,6.90
2019-01-05T11:34:55.729Z,7.00
2019-01-05T11:38:27.984Z,7.00
2019-01-05T11:41:37.459Z,7.00
2019-01-05T11:45:10.304Z,6.90
2019-01-05T11:48:43.453Z,6.90
2019-01-05T11:52:23.803Z,6.90
2019-01-05T11:55:57.325Z,6.80
2019-01-05T11:59:04.961Z,6.80
2019-01-05T12:02:33.422Z,6.80
2019-01-05T12:06:35.068Z,6.70
2019-01-05T12:09:53.084Z,6.70
2019-01-05T12:13:16.368Z,6.70
2019-01-05T12:16:28.578Z,6.60
2019-01-05T12:20:11.753Z,6.60
2019-01-05T12:23:37.631Z,6.60
2019-01-05T12:27:07.450Z,6.60
2019-01-05T12:30:28.947Z,6.50
2019-01-05T12:33:59.615Z,6.50
2019-01-05T12:37:16.830Z,6.40
2019-01-05T12:40:32.198Z,6.40
2019-01-05T12:44:13.096Z,6.40
2019-01-05T12:47:39.959Z,6.50
2019-01-05T12:51:11.814Z,6.40
2019-01-05T12:54:39.938Z,6.40
2019-01-05T12:57:49.363Z,6.50
2019-01-05T13:01:32.477Z,6.50
2019-01-05T13:05:17.702Z,6.50
2019-01-05T13:08:52.531Z,6.50
2019-01-05T13:12:17.370Z,6.50
2019-01-05T13:15:23.631Z,6.50
2019-01-05T13:18:52.487Z,6.50
2019-01-05T13:22:03.319Z,6.60
2019-01-05T13:25:36.910Z,6.50
2019-01-05T13:29:13.663Z,6.50
2019-01-05T13:33:10.172Z,6.50
2019-01-05T13:36:48.653Z,6.50
2019-01-05T13:40:27.407Z,6.50
2019-01-05T13:44:05.824Z,6.40
2019-01-05T13:47:23.954Z,6.40
2019-01-05T13:50:39.237Z,6.40
2019-01-05T13:53:32.706Z,6.30
2019-01-05T13:56:30.054Z,6.30
2019-01-05T13:59:09.408Z,6.30
2019-01-05T14:02:13.206Z,6.20
2019-01-05T14:04:59.969Z,6.30
2019-01-05T14:07:46.468Z,6.20
2019-01-05T14:10:27.403Z,6.20
2019-01-05T14:13:14.139Z,6.20
2019-01-05T14:16:01.417Z,6.20
2019-01-05T14:18:47.838Z,6.20
2019-01-05T14:21:41.603Z,6.20
2019-01-05T14:24:31.595Z,6.10
2019-01-05T14:27:18.322Z,6.10
2019-01-05T14:30:01.461Z,6.10
2019-01-05T14:32:48.231Z,6.00
2019-01-05T14:35:37.099Z,6.00
2019-01-05T14:38:20.918Z,6.00
2019-01-05T14:41:14.613Z,6.00
2019-01-05T14:44:09.194Z,5.90
2019-01-05T14:47:09.078Z,5.90
2019-01-05T14:49:55.658Z,5.90
2019-01-05T14:52:46.519Z,5.80
2019-01-05T14:55:28.937Z,5.80
2019-01-05T14:58:15.579Z,5.80
2019-01-05T15:00:56.518Z,5.80
2019-01-05T15:03:50.291Z,5.70
2019-01-05T15:06:40.434Z,5.70
2019-01-05T15:09:36.511Z,5.70
2019-01-05T15:12:24.303Z,5.70
2019-01-05T15:15:06.444Z,5.60
2019-01-05T15:17:50.276Z,5.60
2019-01-05T15:20:38.083Z,5.60
2019-01-05T15:23:25.873Z,5.60
2019-01-05T15:26:24.586Z,5.60
2019-01-05T15:29:09.499Z,5.60
2019-01-05T15:32:06.607Z,5.50
2019-01-05T15:35:00.018Z,5.50
2019-01-05T15:37:54.128Z,5.50
2019-01-05T15:40:41.081Z,5.50
2019-01-05T15:43:27.716Z,5.50
2019-01-05T15:46:08.807Z,5.40
2019-01-05T15:48:55.376Z,5.40
2019-01-05T15:51:42.194Z,5.30
2019-01-05T15:54:24.401Z,5.30
2019-01-05T15:57:19.073Z,5.40
2019-01-05T15:59:57.679Z,5.30
2019-01-05T16:02:36.051Z,5.30
2019-01-05T16:05:23.124Z,5.20
2019-01-05T16:08:06.374Z,5.20
2019-01-05T16:10:53.035Z,5.20
2019-01-05T16:13:39.681Z,5.20
2019-01-05T16:16:27.959Z,5.10
2019-01-05T16:19:14.395Z,5.20
2019-01-05T16:22:04.138Z,5.10
2019-01-05T16:24:57.597Z,5.10
2019-01-05T16:27:39.602Z,5.10
2019-01-05T16:30:26.507Z,5.10
2019-01-05T16:33:13.150Z,5.10
2019-01-05T16:36:00.057Z,5.10
2019-01-05T16:38:48.075Z,5.10
2019-01-05T16:41:40.721Z,5.10
2019-01-05T16:44:43.460Z,5.00
2019-01-05T16:47:40.291Z,5.00
2019-01-05T16:50:24.177Z,5.00
2019-01-05T16:53:06.798Z,5.00
2019-01-05T16:56:00.633Z,5.10
2019-01-05T16:58:48.509Z,5.00
2019-01-05T17:01:35.241Z,5.00
2019-01-05T17:04:21.999Z,5.00
2019-01-05T17:07:08.687Z,5.00
2019-01-05T17:09:55.175Z,5.00
2019-01-05T17:12:57.316Z,5.00
2019-01-05T17:16:00.408Z,4.90
2019-01-05T17:18:47.094Z,5.00
2019-01-05T17:21:44.979Z,4.90
2019-01-05T17:24:47.887Z,4.90
2019-01-05T17:27:34.377Z,4.90
2019-01-05T17:30:33.542Z,4.90
2019-01-05T17:33:24.589Z,4.80
2019-01-05T17:36:11.251Z,4.80
2019-01-05T17:39:04.058Z,4.80
2019-01-05T17:42:00.267Z,4.90
2019-01-05T17:44:46.811Z,4.80
2019-01-05T17:47:33.582Z,4.80
2019-01-05T17:50:37.802Z,4.80
2019-01-05T17:53:24.262Z,4.80
2019-01-05T17:56:11.187Z,4.80
2019-01-05T17:58:57.778Z,4.80
2019-01-05T18:01:42.882Z,4.70
2019-01-05T18:04:29.558Z,4.70
2019-01-05T18:07:16.301Z,4.70
2019-01-05T18:10:10.363Z,4.70
2019-01-05T18:13:01.149Z,4.70
2019-01-05T18:15:54.982Z,4.70
2019-01-05T18:18:38.722Z,4.70
2019-01-05T18:21:26.515Z,4.70
2019-01-05T18:24:17.146Z,4.70
2019-01-05T18:27:14.311Z,4.60
2019-01-05T18:29:59.686Z,4.60
2019-01-05T18:32:52.313Z,4.60
2019-01-05T18:35:39.172Z,4.60
2019-01-05T18:38:25.931Z,4.60
2019-01-05T18:41:16.554Z,4.50
2019-01-05T18:43:58.335Z,4.50
2019-01-05T18:47:04.071Z,4.50
2019-01-05T18:49:55.096Z,4.50
2019-01-05T18:52:44.030Z,4.40
2019-01-05T18:55:28.110Z,4.40
2019-01-05T18:58:20.247Z,4.40
2019-01-05T19:01:17.013Z,4.30
2019-01-05T19:04:01.643Z,4.20
2019-01-05T19:06:50.647Z,4.00
2019-01-05T19:09:37.209Z,3.90
2019-01-05T19:12:23.793Z,3.80
2019-01-05T19:15:14.626Z,3.70
2019-01-05T19:17:56.102Z,3.50
2019-01-05T19:20:42.671Z,3.40
2019-01-05T19:23:40.718Z,3.40
2019-01-05T19:26:28.697Z,3.40
2019-01-05T19:29:19.729Z,3.40
2019-01-05T19:32:06.495Z,3.40
2019-01-05T19:34:53.127Z,3.30
2019-01-05T19:37:51.952Z,3.30
2019-01-05T19:40:38.466Z,3.40
2019-01-05T19:43:24.942Z,3.30
2019-01-05T19:46:12.102Z,3.40
2019-01-05T19:49:09.635Z,3.30
2019-01-05T19:51:56.140Z,3.40
2019-01-05T19:54:44.895Z,3.30
2019-01-05T19:57:33.154Z,3.30
2019-01-05T20:00:30.402Z,3.40
2019-01-05T20:03:27.661Z,3.30
2019-01-05T20:06:19.327Z,3.30
2019-01-05T20:09:05.791Z,3.40
2019-01-05T20:11:52.827Z,3.40
2019-01-05T20:14:32.635Z,3.40
2019-01-05T20:17:18.443Z,3.40
2019-01-05T20:20:01.117Z,3.30
2019-01-05T20:22:47.677Z,3.30
2019-01-05T20:25:34.416Z,3.20
2019-01-05T20:28:37.394Z,3.20
2019-01-05T20:31:34.550Z,3.30
2019-01-05T20:34:21.217Z,3.20
2019-01-05T20:37:08.199Z,3.20
2019-01-05T20:39:54.908Z,3.20
2019-01-05T20:42:41.781Z,3.10
2019-01-05T20:45:28.772Z,3.10
2019-01-05T20:48:19.635Z,3.00
2019-01-05T20:51:06.094Z,3.00
2019-01-05T20:53:59.834Z,3.00
2019-01-05T20:56:47.632Z,2.90
2019-01-05T20:59:36.543Z,2.90
2019-01-05T21:02:23.201Z,2.80
2019-01-05T21:05:09.245Z,2.80
2019-01-05T21:07:55.726Z,2.80
2019-01-05T21:10:42.706Z,2.80
2019-01-05T21:13:25.273Z,2.80
2019-01-05T21:16:25.275Z,2.80
2019-01-05T21:19:05.771Z,2.80
2019-01-05T21:21:45.481Z,2.80
